sensor_id;sensor_type;location;lat;lon;timestamp;temperature;humidity
8109;DHT22;4097;47.812;12.374;2022-12-26T00:00:42;6.10;99.90
8109;DHT22;4097;47.812;12.374;2022-12-26T00:03:09;6.10;99.90
8109;DHT22;4097;47.812;12.374;2022-12-26T00:05:36;6.10;99.90
8109;DHT22;4097;47.812;12.374;2022-12-26T00:08:03;6.00;99.90
8109;DHT22;4097;47.812;12.374;2022-12-26T00:10:33;6.00;99.90
8109;DHT22;4097;47.812;12.374;2022-12-26T00:13:00;6.00;99.90
8109;DHT22;4097;47.812;12.374;2022-12-26T00:15:27;6.00;99.90
8109;DHT22;4097;47.812;12.374;2022-12-26T00:17:54;6.10;99.90
8109;DHT22;4097;47.812;12.374;2022-12-26T00:20:21;6.00;99.90
8109;DHT22;4097;47.812;12.374;2022-12-26T00:22:48;6.00;99.90
8109;DHT22;4097;47.812;12.374;2022-12-26T00:25:15;6.00;99.90
8109;DHT22;4097;47.812;12.374;2022-12-26T00:27:43;6.00;99.90
8109;DHT22;4097;47.812;12.374;2022-12-26T00:30:11;6.00;99.90
8109;DHT22;4097;47.812;12.374;2022-12-26T00:32:38;6.00;99.90
8109;DHT22;4097;47.812;12.374;2022-12-26T00:35:06;6.00;99.90
8109;DHT22;4097;47.812;12.374;2022-12-26T00:37:35;6.00;99.90
8109;DHT22;4097;47.812;12.374;2022-12-26T00:40:03;5.90;99.90
8109;DHT22;4097;47.812;12.374;2022-12-26T00:42:30;5.90;99.90
8109;DHT22;4097;47.812;12.374;2022-12-26T00:45:03;5.90;99.90
8109;DHT22;4097;47.812;12.374;2022-12-26T00:47:30;6.00;99.90
8109;DHT22;4097;47.812;12.374;2022-12-26T00:49:57;6.00;99.90
8109;DHT22;4097;47.812;12.374;2022-12-26T00:52:24;6.00;99.90
8109;DHT22;4097;47.812;12.374;2022-12-26T00:54:50;6.00;99.90
8109;DHT22;4097;47.812;12.374;2022-12-26T00:57:20;5.90;99.90
8109;DHT22;4097;47.812;12.374;2022-12-26T00:59:47;5.80;99.90
8109;DHT22;4097;47.812;12.374;2022-12-26T01:02:15;5.80;99.90
8109;DHT22;4097;47.812;12.374;2022-12-26T01:04:59;5.80;99.90
8109;DHT22;4097;47.812;12.374;2022-12-26T01:07:26;5.80;99.90
8109;DHT22;4097;47.812;12.374;2022-12-26T01:09:53;5.80;99.90
8109;DHT22;4097;47.812;12.374;2022-12-26T01:12:20;5.80;99.90
8109;DHT22;4097;47.812;12.374;2022-12-26T01:14:47;5.80;99.90
8109;DHT22;4097;47.812;12.374;2022-12-26T01:17:16;5.80;99.90
8109;DHT22;4097;47.812;12.374;2022-12-26T01:19:43;5.80;99.90
8109;DHT22;4097;47.812;12.374;2022-12-26T01:22:09;5.90;99.90
8109;DHT22;4097;47.812;12.374;2022-12-26T01:24:36;5.80;99.90
8109;DHT22;4097;47.812;12.374;2022-12-26T01:27:03;5.70;99.90
8109;DHT22;4097;47.812;12.374;2022-12-26T01:29:30;5.70;99.90
8109;DHT22;4097;47.812;12.374;2022-12-26T01:31:57;5.70;99.90
8109;DHT22;4097;47.812;12.374;2022-12-26T01:34:25;5.70;99.90
8109;DHT22;4097;47.812;12.374;2022-12-26T01:36:53;5.80;99.90
8109;DHT22;4097;47.812;12.374;2022-12-26T01:39:20;5.70;99.90
8109;DHT22;4097;47.812;12.374;2022-12-26T01:41:47;5.80;99.90
8109;DHT22;4097;47.812;12.374;2022-12-26T01:47:20;5.70;99.90
8109;DHT22;4097;47.812;12.374;2022-12-26T01:49:52;5.60;99.90
8109;DHT22;4097;47.812;12.374;2022-12-26T01:52:26;5.60;99.90
8109;DHT22;4097;47.812;12.374;2022-12-26T01:54:55;5.60;99.90
8109;DHT22;4097;47.812;12.374;2022-12-26T01:57:27;5.60;99.90
8109;DHT22;4097;47.812;12.374;2022-12-26T01:59:57;5.60;99.90
8109;DHT22;4097;47.812;12.374;2022-12-26T02:02:28;5.60;99.90
8109;DHT22;4097;47.812;12.374;2022-12-26T02:05:18;5.60;99.90
8109;DHT22;4097;47.812;12.374;2022-12-26T02:08:00;5.60;99.90
8109;DHT22;4097;47.812;12.374;2022-12-26T02:10:31;5.60;99.90
8109;DHT22;4097;47.812;12.374;2022-12-26T02:12:59;5.50;99.90
8109;DHT22;4097;47.812;12.374;2022-12-26T02:15:27;5.50;99.90
8109;DHT22;4097;47.812;12.374;2022-12-26T02:17:57;5.50;99.90
8109;DHT22;4097;47.812;12.374;2022-12-26T02:20:28;5.50;99.90
8109;DHT22;4097;47.812;12.374;2022-12-26T02:23:21;5.50;99.90
8109;DHT22;4097;47.812;12.374;2022-12-26T02:29:18;5.40;99.90
8109;DHT22;4097;47.812;12.374;2022-12-26T02:31:56;5.30;99.90
8109;DHT22;4097;47.812;12.374;2022-12-26T02:34:32;5.40;99.90
8109;DHT22;4097;47.812;12.374;2022-12-26T02:37:13;5.30;99.90
8109;DHT22;4097;47.812;12.374;2022-12-26T02:39:55;5.30;99.90
8109;DHT22;4097;47.812;12.374;2022-12-26T02:42:34;5.30;99.90
8109;DHT22;4097;47.812;12.374;2022-12-26T02:45:12;5.30;99.90
8109;DHT22;4097;47.812;12.374;2022-12-26T02:48:06;5.30;99.90
8109;DHT22;4097;47.812;12.374;2022-12-26T02:50:45;5.30;99.90
8109;DHT22;4097;47.812;12.374;2022-12-26T02:53:36;5.20;99.90
8109;DHT22;4097;47.812;12.374;2022-12-26T02:56:26;5.30;99.90
8109;DHT22;4097;47.812;12.374;2022-12-26T02:59:17;5.20;99.90
8109;DHT22;4097;47.812;12.374;2022-12-26T03:02:07;5.20;99.90
8109;DHT22;4097;47.812;12.374;2022-12-26T03:05:03;5.20;99.90
8109;DHT22;4097;47.812;12.374;2022-12-26T03:07:51;5.30;99.90
8109;DHT22;4097;47.812;12.374;2022-12-26T03:10:36;5.20;99.90
8109;DHT22;4097;47.812;12.374;2022-12-26T03:13:25;5.30;99.90
8109;DHT22;4097;47.812;12.374;2022-12-26T03:15:56;5.30;99.90
8109;DHT22;4097;47.812;12.374;2022-12-26T03:18:46;5.30;99.90
8109;DHT22;4097;47.812;12.374;2022-12-26T03:21:19;5.30;99.90
8109;DHT22;4097;47.812;12.374;2022-12-26T03:23:50;5.30;99.90
8109;DHT22;4097;47.812;12.374;2022-12-26T03:26:21;5.30;99.90
8109;DHT22;4097;47.812;12.374;2022-12-26T03:29:04;5.20;99.90
8109;DHT22;4097;47.812;12.374;2022-12-26T03:31:49;5.20;99.90
8109;DHT22;4097;47.812;12.374;2022-12-26T03:34:16;5.20;99.90
8109;DHT22;4097;47.812;12.374;2022-12-26T03:36:53;5.20;99.90
8109;DHT22;4097;47.812;12.374;2022-12-26T03:39:30;5.10;99.90
8109;DHT22;4097;47.812;12.374;2022-12-26T03:42:20;5.20;99.90
8109;DHT22;4097;47.812;12.374;2022-12-26T03:45:21;5.10;99.90
8109;DHT22;4097;47.812;12.374;2022-12-26T03:48:14;5.10;99.90
8109;DHT22;4097;47.812;12.374;2022-12-26T03:51:06;5.10;99.90
8109;DHT22;4097;47.812;12.374;2022-12-26T03:53:56;5.20;99.90
8109;DHT22;4097;47.812;12.374;2022-12-26T03:56:45;5.20;99.90
8109;DHT22;4097;47.812;12.374;2022-12-26T03:59:34;5.20;99.90
8109;DHT22;4097;47.812;12.374;2022-12-26T04:02:22;5.20;99.90
8109;DHT22;4097;47.812;12.374;2022-12-26T04:05:08;5.20;99.90
8109;DHT22;4097;47.812;12.374;2022-12-26T04:07:57;5.10;99.90
8109;DHT22;4097;47.812;12.374;2022-12-26T04:10:48;5.10;99.90
8109;DHT22;4097;47.812;12.374;2022-12-26T04:13:44;5.20;99.90
8109;DHT22;4097;47.812;12.374;2022-12-26T04:16:33;5.20;99.90
8109;DHT22;4097;47.812;12.374;2022-12-26T04:19:25;5.20;99.90
8109;DHT22;4097;47.812;12.374;2022-12-26T04:22:02;5.20;99.90
8109;DHT22;4097;47.812;12.374;2022-12-26T04:24:53;5.20;99.90
8109;DHT22;4097;47.812;12.374;2022-12-26T04:27:41;5.20;99.90
8109;DHT22;4097;47.812;12.374;2022-12-26T04:30:25;5.10;99.90
8109;DHT22;4097;47.812;12.374;2022-12-26T04:33:12;5.20;99.90
8109;DHT22;4097;47.812;12.374;2022-12-26T04:36:04;5.20;99.90
8109;DHT22;4097;47.812;12.374;2022-12-26T04:38:53;5.20;99.90
8109;DHT22;4097;47.812;12.374;2022-12-26T04:41:40;5.30;99.90
8109;DHT22;4097;47.812;12.374;2022-12-26T04:44:28;5.20;99.90
8109;DHT22;4097;47.812;12.374;2022-12-26T04:46:56;5.20;99.90
8109;DHT22;4097;47.812;12.374;2022-12-26T04:49:23;5.20;99.90
8109;DHT22;4097;47.812;12.374;2022-12-26T04:52:14;5.30;99.90
8109;DHT22;4097;47.812;12.374;2022-12-26T04:54:47;5.40;99.90
8109;DHT22;4097;47.812;12.374;2022-12-26T05:00:27;5.40;99.90
8109;DHT22;4097;47.812;12.374;2022-12-26T05:02:55;5.40;99.90
8109;DHT22;4097;47.812;12.374;2022-12-26T05:05:41;5.40;99.90
8109;DHT22;4097;47.812;12.374;2022-12-26T05:08:32;5.40;99.90
8109;DHT22;4097;47.812;12.374;2022-12-26T05:11:19;5.40;99.90
8109;DHT22;4097;47.812;12.374;2022-12-26T05:13:46;5.50;99.90
8109;DHT22;4097;47.812;12.374;2022-12-26T05:16:15;5.60;99.90
8109;DHT22;4097;47.812;12.374;2022-12-26T05:19:01;5.70;99.90
8109;DHT22;4097;47.812;12.374;2022-12-26T05:21:46;5.70;99.90
8109;DHT22;4097;47.812;12.374;2022-12-26T05:24:36;5.70;99.90
8109;DHT22;4097;47.812;12.374;2022-12-26T05:27:24;5.60;99.90
8109;DHT22;4097;47.812;12.374;2022-12-26T05:30:11;5.60;99.90
8109;DHT22;4097;47.812;12.374;2022-12-26T05:32:39;5.60;99.90
8109;DHT22;4097;47.812;12.374;2022-12-26T05:35:24;5.60;99.90
8109;DHT22;4097;47.812;12.374;2022-12-26T05:37:51;5.50;99.90
8109;DHT22;4097;47.812;12.374;2022-12-26T05:40:18;5.50;99.90
8109;DHT22;4097;47.812;12.374;2022-12-26T05:42:45;5.50;99.90
8109;DHT22;4097;47.812;12.374;2022-12-26T05:45:14;5.50;99.90
8109;DHT22;4097;47.812;12.374;2022-12-26T05:47:46;5.50;99.90
8109;DHT22;4097;47.812;12.374;2022-12-26T05:50:16;5.50;99.90
8109;DHT22;4097;47.812;12.374;2022-12-26T05:52:43;5.60;99.90
8109;DHT22;4097;47.812;12.374;2022-12-26T05:55:10;5.50;99.90
8109;DHT22;4097;47.812;12.374;2022-12-26T05:57:37;5.50;99.90
8109;DHT22;4097;47.812;12.374;2022-12-26T06:00:06;5.50;99.90
8109;DHT22;4097;47.812;12.374;2022-12-26T06:02:35;5.40;99.90
8109;DHT22;4097;47.812;12.374;2022-12-26T06:05:04;5.50;99.90
8109;DHT22;4097;47.812;12.374;2022-12-26T06:07:32;5.60;99.90
8109;DHT22;4097;47.812;12.374;2022-12-26T06:09:59;5.80;99.90
8109;DHT22;4097;47.812;12.374;2022-12-26T06:12:28;6.00;99.90
8109;DHT22;4097;47.812;12.374;2022-12-26T06:14:55;6.00;99.90
8109;DHT22;4097;47.812;12.374;2022-12-26T06:17:22;5.90;99.90
8109;DHT22;4097;47.812;12.374;2022-12-26T06:19:49;6.00;99.90
8109;DHT22;4097;47.812;12.374;2022-12-26T06:22:17;6.00;99.90
8109;DHT22;4097;47.812;12.374;2022-12-26T06:24:44;5.90;99.90
8109;DHT22;4097;47.812;12.374;2022-12-26T06:27:11;5.80;99.90
8109;DHT22;4097;47.812;12.374;2022-12-26T06:29:38;5.80;99.90
8109;DHT22;4097;47.812;12.374;2022-12-26T06:32:05;5.60;99.90
8109;DHT22;4097;47.812;12.374;2022-12-26T06:34:32;5.60;99.90
8109;DHT22;4097;47.812;12.374;2022-12-26T06:37:01;5.50;99.90
8109;DHT22;4097;47.812;12.374;2022-12-26T06:39:30;5.50;99.90
8109;DHT22;4097;47.812;12.374;2022-12-26T06:41:57;5.60;99.90
8109;DHT22;4097;47.812;12.374;2022-12-26T06:44:23;5.70;99.90
8109;DHT22;4097;47.812;12.374;2022-12-26T06:47:02;5.70;99.90
8109;DHT22;4097;47.812;12.374;2022-12-26T06:49:29;5.70;99.90
8109;DHT22;4097;47.812;12.374;2022-12-26T06:51:57;5.60;99.90
8109;DHT22;4097;47.812;12.374;2022-12-26T06:54:35;5.60;99.90
8109;DHT22;4097;47.812;12.374;2022-12-26T06:57:02;5.60;99.90
8109;DHT22;4097;47.812;12.374;2022-12-26T06:59:29;5.60;99.90
8109;DHT22;4097;47.812;12.374;2022-12-26T07:01:56;5.60;99.90
8109;DHT22;4097;47.812;12.374;2022-12-26T07:04:23;5.60;99.90
8109;DHT22;4097;47.812;12.374;2022-12-26T07:06:50;5.60;99.90
8109;DHT22;4097;47.812;12.374;2022-12-26T07:09:18;5.60;99.90
8109;DHT22;4097;47.812;12.374;2022-12-26T07:11:48;5.60;99.90
8109;DHT22;4097;47.812;12.374;2022-12-26T07:14:15;5.60;99.90
8109;DHT22;4097;47.812;12.374;2022-12-26T07:16:43;5.60;99.90
8109;DHT22;4097;47.812;12.374;2022-12-26T07:19:11;5.70;99.90
8109;DHT22;4097;47.812;12.374;2022-12-26T07:21:39;5.80;99.90
8109;DHT22;4097;47.812;12.374;2022-12-26T07:24:08;5.80;99.90
8109;DHT22;4097;47.812;12.374;2022-12-26T07:26:41;5.70;99.90
8109;DHT22;4097;47.812;12.374;2022-12-26T07:29:13;5.60;99.90
8109;DHT22;4097;47.812;12.374;2022-12-26T07:31:41;5.50;99.90
8109;DHT22;4097;47.812;12.374;2022-12-26T07:34:08;5.50;99.90
8109;DHT22;4097;47.812;12.374;2022-12-26T07:36:35;5.50;99.90
8109;DHT22;4097;47.812;12.374;2022-12-26T07:39:03;5.50;99.90
8109;DHT22;4097;47.812;12.374;2022-12-26T07:41:30;5.50;99.90
8109;DHT22;4097;47.812;12.374;2022-12-26T07:44:16;5.70;99.90
8109;DHT22;4097;47.812;12.374;2022-12-26T07:46:43;5.80;99.90
8109;DHT22;4097;47.812;12.374;2022-12-26T07:49:11;6.00;99.90
8109;DHT22;4097;47.812;12.374;2022-12-26T07:51:40;6.30;99.90
8109;DHT22;4097;47.812;12.374;2022-12-26T07:54:08;6.40;99.90
8109;DHT22;4097;47.812;12.374;2022-12-26T07:56:39;6.40;99.90
8109;DHT22;4097;47.812;12.374;2022-12-26T07:59:12;6.40;99.90
8109;DHT22;4097;47.812;12.374;2022-12-26T08:01:42;6.30;99.90
8109;DHT22;4097;47.812;12.374;2022-12-26T08:04:10;6.20;99.90
8109;DHT22;4097;47.812;12.374;2022-12-26T08:06:38;6.20;99.90
8109;DHT22;4097;47.812;12.374;2022-12-26T08:09:05;6.10;99.90
8109;DHT22;4097;47.812;12.374;2022-12-26T08:11:33;6.10;99.90
8109;DHT22;4097;47.812;12.374;2022-12-26T08:14:01;6.10;99.90
8109;DHT22;4097;47.812;12.374;2022-12-26T08:16:28;6.10;99.90
8109;DHT22;4097;47.812;12.374;2022-12-26T08:18:57;6.20;99.90
8109;DHT22;4097;47.812;12.374;2022-12-26T08:21:24;6.30;99.90
8109;DHT22;4097;47.812;12.374;2022-12-26T08:24:06;6.30;99.90
8109;DHT22;4097;47.812;12.374;2022-12-26T08:26:40;6.30;99.90
8109;DHT22;4097;47.812;12.374;2022-12-26T08:29:12;6.30;99.90
8109;DHT22;4097;47.812;12.374;2022-12-26T08:31:39;6.30;99.90
8109;DHT22;4097;47.812;12.374;2022-12-26T08:34:10;6.40;99.90
8109;DHT22;4097;47.812;12.374;2022-12-26T08:36:49;6.40;99.90
8109;DHT22;4097;47.812;12.374;2022-12-26T08:39:17;6.50;99.90
8109;DHT22;4097;47.812;12.374;2022-12-26T08:42:05;6.60;99.90
8109;DHT22;4097;47.812;12.374;2022-12-26T08:44:38;6.60;99.90
8109;DHT22;4097;47.812;12.374;2022-12-26T08:47:06;6.70;99.90
8109;DHT22;4097;47.812;12.374;2022-12-26T08:49:34;6.80;99.90
8109;DHT22;4097;47.812;12.374;2022-12-26T08:52:01;6.90;99.90
8109;DHT22;4097;47.812;12.374;2022-12-26T08:54:28;7.00;99.90
8109;DHT22;4097;47.812;12.374;2022-12-26T08:56:55;7.10;99.90
8109;DHT22;4097;47.812;12.374;2022-12-26T08:59:22;7.20;99.90
8109;DHT22;4097;47.812;12.374;2022-12-26T09:01:52;7.30;99.90
8109;DHT22;4097;47.812;12.374;2022-12-26T09:04:28;7.40;99.90
8109;DHT22;4097;47.812;12.374;2022-12-26T09:06:56;7.70;99.90
8109;DHT22;4097;47.812;12.374;2022-12-26T09:09:23;7.90;99.90
8109;DHT22;4097;47.812;12.374;2022-12-26T09:11:50;8.30;99.90
8109;DHT22;4097;47.812;12.374;2022-12-26T09:14:17;8.50;99.90
8109;DHT22;4097;47.812;12.374;2022-12-26T09:16:44;8.80;99.90
8109;DHT22;4097;47.812;12.374;2022-12-26T09:19:13;9.10;99.90
8109;DHT22;4097;47.812;12.374;2022-12-26T09:21:41;9.20;99.90
8109;DHT22;4097;47.812;12.374;2022-12-26T09:24:12;9.30;99.90
8109;DHT22;4097;47.812;12.374;2022-12-26T09:26:39;9.20;99.90
8109;DHT22;4097;47.812;12.374;2022-12-26T09:29:06;9.00;99.90
8109;DHT22;4097;47.812;12.374;2022-12-26T09:31:37;8.80;99.90
8109;DHT22;4097;47.812;12.374;2022-12-26T09:34:05;8.70;99.90
8109;DHT22;4097;47.812;12.374;2022-12-26T09:36:34;8.60;99.90
8109;DHT22;4097;47.812;12.374;2022-12-26T09:39:04;8.50;99.90
8109;DHT22;4097;47.812;12.374;2022-12-26T09:41:54;8.50;99.90
8109;DHT22;4097;47.812;12.374;2022-12-26T09:44:35;8.50;99.90
8109;DHT22;4097;47.812;12.374;2022-12-26T09:47:12;8.40;99.90
8109;DHT22;4097;47.812;12.374;2022-12-26T09:49:50;8.40;99.90
8109;DHT22;4097;47.812;12.374;2022-12-26T09:52:22;8.50;99.90
8109;DHT22;4097;47.812;12.374;2022-12-26T09:54:51;8.50;99.90
8109;DHT22;4097;47.812;12.374;2022-12-26T09:57:34;8.40;99.90
8109;DHT22;4097;47.812;12.374;2022-12-26T10:00:04;8.50;99.90
8109;DHT22;4097;47.812;12.374;2022-12-26T10:02:32;8.50;99.90
8109;DHT22;4097;47.812;12.374;2022-12-26T10:04:59;8.50;99.90
8109;DHT22;4097;47.812;12.374;2022-12-26T10:07:30;8.60;99.90
8109;DHT22;4097;47.812;12.374;2022-12-26T10:10:08;8.70;99.90
8109;DHT22;4097;47.812;12.374;2022-12-26T10:12:43;8.70;99.90
8109;DHT22;4097;47.812;12.374;2022-12-26T10:15:33;8.80;99.90
8109;DHT22;4097;47.812;12.374;2022-12-26T10:18:11;8.90;99.90
8109;DHT22;4097;47.812;12.374;2022-12-26T10:20:50;9.00;99.90
8109;DHT22;4097;47.812;12.374;2022-12-26T10:23:30;9.10;99.90
8109;DHT22;4097;47.812;12.374;2022-12-26T10:26:03;9.20;99.90
8109;DHT22;4097;47.812;12.374;2022-12-26T10:28:35;9.30;99.90
8109;DHT22;4097;47.812;12.374;2022-12-26T10:31:08;9.50;99.90
8109;DHT22;4097;47.812;12.374;2022-12-26T10:33:42;9.60;99.90
8109;DHT22;4097;47.812;12.374;2022-12-26T10:36:17;9.70;99.90
8109;DHT22;4097;47.812;12.374;2022-12-26T10:38:48;9.80;99.90
8109;DHT22;4097;47.812;12.374;2022-12-26T10:41:22;9.90;99.90
8109;DHT22;4097;47.812;12.374;2022-12-26T10:43:51;10.20;99.40
8109;DHT22;4097;47.812;12.374;2022-12-26T10:46:38;10.30;99.30
8109;DHT22;4097;47.812;12.374;2022-12-26T10:49:08;10.40;98.60
8109;DHT22;4097;47.812;12.374;2022-12-26T10:51:36;10.60;98.40
8109;DHT22;4097;47.812;12.374;2022-12-26T10:54:11;10.70;98.80
8109;DHT22;4097;47.812;12.374;2022-12-26T10:56:48;10.90;97.70
8109;DHT22;4097;47.812;12.374;2022-12-26T10:59:21;11.10;97.40
8109;DHT22;4097;47.812;12.374;2022-12-26T11:01:49;11.40;96.60
8109;DHT22;4097;47.812;12.374;2022-12-26T11:04:19;11.60;96.30
8109;DHT22;4097;47.812;12.374;2022-12-26T11:06:50;11.80;95.80
8109;DHT22;4097;47.812;12.374;2022-12-26T11:09:30;11.80;95.90
8109;DHT22;4097;47.812;12.374;2022-12-26T11:11:59;11.90;95.60
8109;DHT22;4097;47.812;12.374;2022-12-26T11:14:32;12.00;95.40
8109;DHT22;4097;47.812;12.374;2022-12-26T11:17:01;12.10;95.50
8109;DHT22;4097;47.812;12.374;2022-12-26T11:19:31;12.20;95.20
8109;DHT22;4097;47.812;12.374;2022-12-26T11:22:22;12.30;95.10
8109;DHT22;4097;47.812;12.374;2022-12-26T11:28:27;12.60;94.60
8109;DHT22;4097;47.812;12.374;2022-12-26T11:30:59;12.60;94.40
8109;DHT22;4097;47.812;12.374;2022-12-26T11:33:40;12.80;94.50
8109;DHT22;4097;47.812;12.374;2022-12-26T11:36:10;12.80;94.40
8109;DHT22;4097;47.812;12.374;2022-12-26T11:38:49;12.70;94.20
8109;DHT22;4097;47.812;12.374;2022-12-26T11:41:31;12.60;94.20
8109;DHT22;4097;47.812;12.374;2022-12-26T11:44:12;12.60;94.50
8109;DHT22;4097;47.812;12.374;2022-12-26T11:46:44;12.50;94.60
8109;DHT22;4097;47.812;12.374;2022-12-26T11:49:18;12.50;94.20
8109;DHT22;4097;47.812;12.374;2022-12-26T11:51:48;12.60;93.50
8109;DHT22;4097;47.812;12.374;2022-12-26T11:54:23;12.80;93.50
8109;DHT22;4097;47.812;12.374;2022-12-26T11:57:14;12.90;93.40
8109;DHT22;4097;47.812;12.374;2022-12-26T11:59:42;12.90;93.80
8109;DHT22;4097;47.812;12.374;2022-12-26T12:02:18;12.90;93.20
8109;DHT22;4097;47.812;12.374;2022-12-26T12:04:57;12.90;93.30
8109;DHT22;4097;47.812;12.374;2022-12-26T12:07:57;13.00;93.10
8109;DHT22;4097;47.812;12.374;2022-12-26T12:11:04;13.00;93.10
8109;DHT22;4097;47.812;12.374;2022-12-26T12:13:44;12.90;93.10
8109;DHT22;4097;47.812;12.374;2022-12-26T12:16:38;13.00;92.80
8109;DHT22;4097;47.812;12.374;2022-12-26T12:19:24;13.00;92.80
8109;DHT22;4097;47.812;12.374;2022-12-26T12:22:09;13.10;92.90
8109;DHT22;4097;47.812;12.374;2022-12-26T12:24:57;13.10;92.40
8109;DHT22;4097;47.812;12.374;2022-12-26T12:27:28;13.10;92.20
8109;DHT22;4097;47.812;12.374;2022-12-26T12:30:09;13.10;92.40
8109;DHT22;4097;47.812;12.374;2022-12-26T12:32:47;13.00;92.50
8109;DHT22;4097;47.812;12.374;2022-12-26T12:35:41;13.10;92.10
8109;DHT22;4097;47.812;12.374;2022-12-26T12:38:34;13.00;92.00
8109;DHT22;4097;47.812;12.374;2022-12-26T12:44:12;13.00;91.80
8109;DHT22;4097;47.812;12.374;2022-12-26T12:46:49;13.00;91.80
8109;DHT22;4097;47.812;12.374;2022-12-26T12:49:34;13.00;91.50
8109;DHT22;4097;47.812;12.374;2022-12-26T12:52:25;13.00;91.70
8109;DHT22;4097;47.812;12.374;2022-12-26T12:55:15;13.00;91.80
8109;DHT22;4097;47.812;12.374;2022-12-26T12:57:47;12.90;91.80
8109;DHT22;4097;47.812;12.374;2022-12-26T13:00:17;12.90;91.60
8109;DHT22;4097;47.812;12.374;2022-12-26T13:02:52;12.80;91.60
8109;DHT22;4097;47.812;12.374;2022-12-26T13:05:28;12.80;91.30
8109;DHT22;4097;47.812;12.374;2022-12-26T13:08:03;12.90;91.60
8109;DHT22;4097;47.812;12.374;2022-12-26T13:10:34;12.80;91.60
8109;DHT22;4097;47.812;12.374;2022-12-26T13:13:15;12.80;91.40
8109;DHT22;4097;47.812;12.374;2022-12-26T13:15:47;12.80;91.20
8109;DHT22;4097;47.812;12.374;2022-12-26T13:18:17;12.70;91.30
8109;DHT22;4097;47.812;12.374;2022-12-26T13:20:51;12.60;91.10
8109;DHT22;4097;47.812;12.374;2022-12-26T13:23:24;12.60;91.30
8109;DHT22;4097;47.812;12.374;2022-12-26T13:26:18;12.50;91.50
8109;DHT22;4097;47.812;12.374;2022-12-26T13:28:52;12.40;91.40
8109;DHT22;4097;47.812;12.374;2022-12-26T13:31:20;12.30;91.80
8109;DHT22;4097;47.812;12.374;2022-12-26T13:33:47;12.30;91.40
8109;DHT22;4097;47.812;12.374;2022-12-26T13:36:32;12.20;91.80
8109;DHT22;4097;47.812;12.374;2022-12-26T13:39:30;12.20;92.10
8109;DHT22;4097;47.812;12.374;2022-12-26T13:42:01;12.10;92.50
8109;DHT22;4097;47.812;12.374;2022-12-26T13:44:47;12.10;92.80
8109;DHT22;4097;47.812;12.374;2022-12-26T13:47:33;12.00;92.90
8109;DHT22;4097;47.812;12.374;2022-12-26T13:53:25;12.00;93.80
8109;DHT22;4097;47.812;12.374;2022-12-26T13:55:56;12.00;94.40
8109;DHT22;4097;47.812;12.374;2022-12-26T13:58:39;12.00;94.60
8109;DHT22;4097;47.812;12.374;2022-12-26T14:01:24;12.00;95.10
8109;DHT22;4097;47.812;12.374;2022-12-26T14:04:14;12.00;95.00
8109;DHT22;4097;47.812;12.374;2022-12-26T14:06:57;12.00;95.30
8109;DHT22;4097;47.812;12.374;2022-12-26T14:09:48;12.00;95.40
8109;DHT22;4097;47.812;12.374;2022-12-26T14:12:43;12.00;95.70
8109;DHT22;4097;47.812;12.374;2022-12-26T14:15:27;11.90;95.90
8109;DHT22;4097;47.812;12.374;2022-12-26T14:18:15;11.90;96.10
8109;DHT22;4097;47.812;12.374;2022-12-26T14:20:48;11.90;96.10
8109;DHT22;4097;47.812;12.374;2022-12-26T14:23:26;11.80;96.50
8109;DHT22;4097;47.812;12.374;2022-12-26T14:26:02;11.90;96.70
8109;DHT22;4097;47.812;12.374;2022-12-26T14:28:49;11.80;97.10
8109;DHT22;4097;47.812;12.374;2022-12-26T14:31:24;11.70;97.40
8109;DHT22;4097;47.812;12.374;2022-12-26T14:34:00;11.70;97.60
8109;DHT22;4097;47.812;12.374;2022-12-26T14:36:38;11.60;97.70
8109;DHT22;4097;47.812;12.374;2022-12-26T14:39:16;11.60;97.90
8109;DHT22;4097;47.812;12.374;2022-12-26T14:42:15;11.60;98.30
8109;DHT22;4097;47.812;12.374;2022-12-26T14:45:03;11.50;98.60
8109;DHT22;4097;47.812;12.374;2022-12-26T14:47:36;11.40;99.00
8109;DHT22;4097;47.812;12.374;2022-12-26T14:50:36;11.40;99.40
8109;DHT22;4097;47.812;12.374;2022-12-26T14:53:30;11.30;99.90
8109;DHT22;4097;47.812;12.374;2022-12-26T14:55:59;11.20;99.90
8109;DHT22;4097;47.812;12.374;2022-12-26T14:58:40;11.20;99.90
8109;DHT22;4097;47.812;12.374;2022-12-26T15:04:35;11.00;99.90
8109;DHT22;4097;47.812;12.374;2022-12-26T15:07:38;10.90;99.90
8109;DHT22;4097;47.812;12.374;2022-12-26T15:10:41;10.80;99.90
8109;DHT22;4097;47.812;12.374;2022-12-26T15:16:28;10.60;99.90
8109;DHT22;4097;47.812;12.374;2022-12-26T15:19:36;10.60;99.90
8109;DHT22;4097;47.812;12.374;2022-12-26T15:22:43;10.50;99.90
8109;DHT22;4097;47.812;12.374;2022-12-26T15:25:47;10.40;99.90
8109;DHT22;4097;47.812;12.374;2022-12-26T15:28:43;10.30;99.90
8109;DHT22;4097;47.812;12.374;2022-12-26T15:31:34;10.30;99.90
8109;DHT22;4097;47.812;12.374;2022-12-26T15:36:56;10.20;99.90
8109;DHT22;4097;47.812;12.374;2022-12-26T15:39:31;10.20;99.90
8109;DHT22;4097;47.812;12.374;2022-12-26T15:42:13;10.20;99.90
8109;DHT22;4097;47.812;12.374;2022-12-26T15:44:47;10.10;99.90
8109;DHT22;4097;47.812;12.374;2022-12-26T15:47:20;10.10;99.90
8109;DHT22;4097;47.812;12.374;2022-12-26T15:50:01;10.00;99.90
8109;DHT22;4097;47.812;12.374;2022-12-26T15:52:49;9.90;99.90
8109;DHT22;4097;47.812;12.374;2022-12-26T15:55:53;9.90;99.90
8109;DHT22;4097;47.812;12.374;2022-12-26T16:01:33;9.60;99.90
8109;DHT22;4097;47.812;12.374;2022-12-26T16:04:02;9.60;99.90
8109;DHT22;4097;47.812;12.374;2022-12-26T16:06:42;9.60;99.90
8109;DHT22;4097;47.812;12.374;2022-12-26T16:09:33;9.60;99.90
8109;DHT22;4097;47.812;12.374;2022-12-26T16:12:13;9.50;99.90
8109;DHT22;4097;47.812;12.374;2022-12-26T16:14:43;9.50;99.90
8109;DHT22;4097;47.812;12.374;2022-12-26T16:17:19;9.40;99.90
8109;DHT22;4097;47.812;12.374;2022-12-26T16:19:47;9.40;99.90
8109;DHT22;4097;47.812;12.374;2022-12-26T16:22:19;9.40;99.90
8109;DHT22;4097;47.812;12.374;2022-12-26T16:25:08;9.30;99.90
8109;DHT22;4097;47.812;12.374;2022-12-26T16:27:37;9.30;99.90
8109;DHT22;4097;47.812;12.374;2022-12-26T16:30:06;9.30;99.90
8109;DHT22;4097;47.812;12.374;2022-12-26T16:32:40;9.30;99.90
8109;DHT22;4097;47.812;12.374;2022-12-26T16:35:16;9.30;99.90
8109;DHT22;4097;47.812;12.374;2022-12-26T16:37:44;9.40;99.90
8109;DHT22;4097;47.812;12.374;2022-12-26T16:40:28;9.40;99.90
8109;DHT22;4097;47.812;12.374;2022-12-26T16:43:01;9.40;99.90
8109;DHT22;4097;47.812;12.374;2022-12-26T16:45:31;9.40;99.90
8109;DHT22;4097;47.812;12.374;2022-12-26T16:47:59;9.40;99.90
8109;DHT22;4097;47.812;12.374;2022-12-26T16:50:29;9.40;99.90
8109;DHT22;4097;47.812;12.374;2022-12-26T16:53:13;9.40;99.90
8109;DHT22;4097;47.812;12.374;2022-12-26T16:55:44;9.40;99.90
8109;DHT22;4097;47.812;12.374;2022-12-26T16:58:20;9.30;99.90
8109;DHT22;4097;47.812;12.374;2022-12-26T17:01:03;9.30;99.90
8109;DHT22;4097;47.812;12.374;2022-12-26T17:03:46;9.30;99.90
8109;DHT22;4097;47.812;12.374;2022-12-26T17:06:16;9.30;99.90
8109;DHT22;4097;47.812;12.374;2022-12-26T17:08:47;9.30;99.90
8109;DHT22;4097;47.812;12.374;2022-12-26T17:11:16;9.20;99.90
8109;DHT22;4097;47.812;12.374;2022-12-26T17:13:49;9.20;99.90
8109;DHT22;4097;47.812;12.374;2022-12-26T17:16:17;9.20;99.90
8109;DHT22;4097;47.812;12.374;2022-12-26T17:18:48;9.20;99.90
8109;DHT22;4097;47.812;12.374;2022-12-26T17:21:26;9.20;99.90
8109;DHT22;4097;47.812;12.374;2022-12-26T17:24:20;9.20;99.90